createdAt,value
2023-09-24T00:01:25.057Z,4.32
2023-09-24T00:04:29.554Z,4.03
2023-09-24T00:07:31.184Z,4.60
2023-09-24T00:10:32.889Z,4.95
2023-09-24T00:13:35.961Z,4.90
2023-09-24T00:16:38.660Z,4.90
2023-09-24T00:19:40.850Z,5.00
2023-09-24T00:22:42.462Z,5.22
2023-09-24T00:25:45.681Z,5.20
2023-09-24T00:28:47.385Z,4.70
2023-09-24T00:31:49.047Z,4.93
2023-09-24T00:34:50.658Z,4.73
2023-09-24T00:37:53.113Z,4.75
2023-09-24T00:40:55.025Z,4.75
2023-09-24T00:43:58.799Z,4.53
2023-09-24T00:47:00.577Z,4.72
2023-09-24T00:50:02.323Z,4.70
2023-09-24T00:53:04.264Z,4.38
2023-09-24T00:56:05.989Z,4.75
2023-09-24T00:59:09.410Z,4.60
2023-09-24T01:02:11.722Z,4.65
2023-09-24T01:05:15.358Z,4.40
2023-09-24T01:08:19.121Z,5.20
2023-09-24T01:11:21.559Z,4.90
2023-09-24T01:14:23.270Z,5.03
2023-09-24T01:17:26.534Z,4.50
2023-09-24T01:20:31.418Z,4.70
2023-09-24T01:23:38.203Z,4.95
2023-09-24T01:26:39.834Z,4.68
2023-09-24T01:29:41.839Z,4.57
2023-09-24T01:32:43.933Z,4.57
2023-09-24T01:35:47.035Z,4.57
2023-09-24T01:38:49.357Z,5.40
2023-09-24T01:41:52.471Z,5.38
2023-09-24T01:44:54.136Z,5.60
2023-09-24T01:47:58.968Z,5.88
2023-09-24T01:51:11.322Z,5.53
2023-09-24T01:54:13.000Z,5.47
2023-09-24T01:57:14.692Z,5.93
2023-09-24T02:00:25.215Z,5.93
2023-09-24T02:03:27.635Z,6.10
2023-09-24T02:06:31.015Z,5.60
2023-09-24T02:09:33.279Z,5.45
2023-09-24T02:12:38.510Z,6.15
2023-09-24T02:15:40.517Z,5.65
2023-09-24T02:18:42.252Z,5.60
2023-09-24T02:21:44.243Z,5.60
2023-09-24T02:24:45.867Z,5.70
2023-09-24T02:27:50.129Z,5.10
2023-09-24T02:30:52.009Z,6.00
2023-09-24T02:33:53.864Z,5.90
2023-09-24T02:36:56.088Z,5.97
2023-09-24T02:39:58.946Z,5.93
2023-09-24T02:43:02.899Z,6.47
2023-09-24T02:46:06.756Z,5.95
2023-09-24T02:49:08.690Z,6.40
2023-09-24T02:52:12.892Z,6.57
2023-09-24T02:55:16.782Z,6.00
2023-09-24T02:58:19.209Z,5.90
2023-09-24T03:01:21.537Z,6.32
2023-09-24T03:04:23.493Z,6.28
2023-09-24T03:07:25.297Z,6.10
2023-09-24T03:10:27.550Z,6.53
2023-09-24T03:13:29.180Z,6.13
2023-09-24T03:16:31.073Z,6.20
2023-09-24T03:19:32.821Z,6.30
2023-09-24T03:22:34.587Z,6.00
2023-09-24T03:25:36.552Z,6.22
2023-09-24T03:28:38.202Z,5.90
2023-09-24T03:31:40.025Z,5.93
2023-09-24T03:34:45.828Z,6.28
2023-09-24T03:37:48.143Z,5.93
2023-09-24T03:40:49.813Z,5.97
2023-09-24T03:43:52.162Z,6.03
2023-09-24T03:46:53.829Z,5.80
2023-09-24T03:49:55.487Z,5.38
2023-09-24T03:52:58.213Z,5.23
2023-09-24T03:55:59.921Z,5.38
2023-09-24T03:59:01.599Z,4.95
2023-09-24T04:02:07.384Z,4.72
2023-09-24T04:05:16.148Z,4.90
2023-09-24T04:08:18.100Z,4.43
2023-09-24T04:11:19.697Z,4.57
2023-09-24T04:14:21.359Z,4.22
2023-09-24T04:17:23.033Z,4.82
2023-09-24T04:20:27.584Z,4.30
2023-09-24T04:23:29.679Z,4.17
2023-09-24T04:26:31.519Z,4.40
2023-09-24T04:29:33.209Z,4.40
2023-09-24T04:32:35.131Z,4.30
2023-09-24T04:35:36.930Z,4.18
2023-09-24T04:38:38.893Z,4.27
2023-09-24T04:41:41.366Z,4.00
2023-09-24T04:44:43.525Z,4.07
2023-09-24T04:47:45.811Z,3.60
2023-09-24T04:50:47.627Z,3.80
2023-09-24T04:53:49.652Z,3.60
2023-09-24T04:56:52.924Z,3.72
2023-09-24T04:59:54.844Z,3.58
2023-09-24T05:02:56.583Z,3.80
2023-09-24T05:05:58.441Z,3.47
2023-09-24T05:09:00.081Z,3.67
2023-09-24T05:12:01.901Z,3.90
2023-09-24T05:15:04.696Z,3.80
2023-09-24T05:18:06.646Z,3.42
2023-09-24T05:21:20.408Z,3.50
2023-09-24T05:24:22.073Z,3.07
2023-09-24T05:27:23.921Z,3.40
2023-09-24T05:30:25.529Z,2.90
2023-09-24T05:33:27.336Z,3.00
2023-09-24T05:36:29.383Z,3.08
2023-09-24T05:39:31.127Z,2.60
2023-09-24T05:42:32.807Z,3.00
2023-09-24T05:45:34.501Z,2.47
2023-09-24T05:48:36.316Z,2.50
2023-09-24T05:51:38.028Z,2.28
2023-09-24T05:54:41.579Z,2.40
2023-09-24T05:57:43.323Z,2.03
2023-09-24T06:00:46.282Z,2.00
2023-09-24T06:03:48.301Z,1.90
2023-09-24T06:06:50.300Z,1.80
2023-09-24T06:09:52.010Z,1.90
2023-09-24T06:12:54.239Z,2.30
2023-09-24T06:16:00.773Z,1.80
2023-09-24T06:19:03.473Z,1.40
2023-09-24T06:22:05.132Z,1.20
2023-09-24T06:25:07.636Z,1.30
2023-09-24T06:28:10.864Z,1.50
2023-09-24T06:31:13.227Z,1.40
2023-09-24T06:34:14.976Z,1.05
2023-09-24T06:37:16.636Z,1.08
2023-09-24T06:40:18.539Z,1.30
2023-09-24T06:43:20.337Z,1.23
2023-09-24T06:46:22.014Z,1.10
2023-09-24T06:49:24.431Z,0.90
2023-09-24T06:52:27.890Z,0.90
2023-09-24T06:55:29.970Z,0.80
2023-09-24T06:58:33.747Z,0.60
2023-09-24T07:01:35.372Z,0.80
2023-09-24T07:04:37.252Z,0.70
2023-09-24T07:07:39.114Z,0.80
2023-09-24T07:10:41.559Z,0.60
2023-09-24T07:13:43.240Z,0.65
2023-09-24T07:16:46.426Z,0.60
2023-09-24T07:19:49.932Z,0.65
2023-09-24T07:22:51.682Z,0.70
2023-09-24T07:25:53.344Z,0.80
2023-09-24T07:28:55.077Z,0.90
2023-09-24T07:31:57.744Z,1.10
2023-09-24T07:34:59.442Z,1.20
2023-09-24T07:38:01.072Z,1.33
2023-09-24T07:41:02.803Z,1.40
2023-09-24T07:44:04.961Z,1.30
2023-09-24T07:47:06.620Z,1.40
2023-09-24T07:50:08.855Z,1.42
2023-09-24T07:53:11.265Z,1.50
2023-09-24T07:56:14.045Z,1.50
2023-09-24T07:59:16.387Z,1.38
2023-09-24T08:02:18.098Z,1.40
2023-09-24T08:05:19.882Z,1.33
2023-09-24T08:08:22.466Z,1.30
2023-09-24T08:11:26.050Z,1.30
2023-09-24T08:14:27.704Z,1.40
2023-09-24T08:17:29.859Z,1.23
2023-09-24T08:20:31.680Z,1.30
2023-09-24T08:23:34.054Z,1.13
2023-09-24T08:26:37.691Z,1.10
2023-09-24T08:29:39.879Z,1.30
2023-09-24T08:32:41.594Z,1.52
2023-09-24T08:35:44.695Z,1.45
2023-09-24T08:38:47.232Z,1.35
2023-09-24T08:41:49.172Z,1.30
2023-09-24T08:45:02.876Z,1.50
2023-09-24T08:48:09.235Z,1.30
2023-09-24T08:51:11.591Z,1.35
2023-09-24T08:54:14.924Z,1.40
2023-09-24T08:57:16.619Z,1.50
2023-09-24T09:00:18.953Z,1.35
2023-09-24T09:03:21.153Z,1.42
2023-09-24T09:06:32.993Z,1.20
2023-09-24T09:09:34.673Z,1.58
2023-09-24T09:12:36.348Z,1.33
2023-09-24T09:15:42.601Z,1.38
2023-09-24T09:18:44.278Z,1.33
2023-09-24T09:21:45.994Z,1.50
2023-09-24T09:24:50.030Z,2.90
2023-09-24T09:27:51.919Z,1.30
2023-09-24T09:31:20.343Z,1.40
2023-09-24T09:34:22.309Z,1.35
2023-09-24T09:37:24.240Z,1.30
2023-09-24T09:40:25.909Z,1.38
2023-09-24T09:43:33.214Z,1.30
2023-09-24T09:46:36.347Z,1.40
2023-09-24T09:49:42.409Z,1.40
2023-09-24T09:52:45.188Z,1.40
2023-09-24T09:55:47.620Z,1.25
2023-09-24T09:58:52.255Z,1.50
2023-09-24T10:01:54.441Z,1.20
2023-09-24T10:04:58.522Z,1.30
2023-09-24T10:08:00.267Z,1.20
2023-09-24T10:11:02.390Z,1.20
2023-09-24T10:14:06.351Z,1.00
2023-09-24T10:17:17.161Z,1.00
2023-09-24T10:20:19.778Z,1.00
2023-09-24T10:23:30.887Z,1.10
2023-09-24T10:26:53.964Z,1.08
2023-09-24T10:29:57.153Z,1.00
2023-09-24T10:32:58.930Z,1.10
2023-09-24T10:36:24.095Z,1.10
2023-09-24T10:39:25.793Z,0.80
2023-09-24T10:42:29.360Z,1.00
2023-09-24T10:45:31.815Z,0.83
2023-09-24T10:48:48.062Z,0.80
2023-09-24T10:51:59.802Z,0.90
2023-09-24T10:55:01.837Z,1.00
2023-09-24T10:58:13.676Z,1.20
2023-09-24T11:01:15.357Z,0.90
2023-09-24T11:04:28.123Z,0.80
2023-09-24T11:07:32.021Z,0.80
2023-09-24T11:10:33.838Z,0.80
2023-09-24T11:13:37.487Z,0.80
2023-09-24T11:16:39.222Z,0.87
2023-09-24T11:19:48.600Z,0.80
2023-09-24T11:23:01.190Z,0.90
2023-09-24T11:26:02.846Z,0.80
2023-09-24T11:29:10.087Z,0.85
2023-09-24T11:32:24.959Z,0.73
2023-09-24T11:35:26.788Z,0.80
2023-09-24T11:38:35.570Z,0.80
2023-09-24T11:41:37.399Z,0.70
2023-09-24T11:44:48.785Z,0.70
2023-09-24T11:47:51.664Z,0.80
2023-09-24T11:50:58.202Z,0.70
2023-09-24T11:54:01.038Z,0.80
2023-09-24T11:57:02.863Z,0.70
2023-09-24T12:00:05.367Z,0.80
2023-09-24T12:03:09.899Z,0.70
2023-09-24T12:06:11.661Z,0.70
2023-09-24T12:09:14.268Z,0.90
2023-09-24T12:12:15.971Z,0.70
2023-09-24T12:15:20.948Z,0.70
2023-09-24T12:18:23.264Z,0.70
2023-09-24T12:21:25.128Z,0.70
2023-09-24T12:24:26.830Z,0.70
2023-09-24T12:27:30.411Z,0.60
2023-09-24T12:30:32.091Z,0.80
2023-09-24T12:33:33.839Z,0.80
2023-09-24T12:36:35.679Z,0.70
2023-09-24T12:39:37.296Z,0.77
2023-09-24T12:42:40.248Z,0.80
2023-09-24T12:45:43.301Z,0.75
2023-09-24T12:48:47.697Z,0.70
2023-09-24T12:51:49.560Z,0.80
2023-09-24T12:54:51.328Z,0.75
2023-09-24T12:57:53.257Z,0.80
2023-09-24T13:00:54.962Z,0.90
2023-09-24T13:03:56.901Z,0.80
2023-09-24T13:06:58.652Z,0.60
2023-09-24T13:10:00.460Z,0.80
2023-09-24T13:13:02.103Z,0.80
2023-09-24T13:16:04.919Z,0.80
2023-09-24T13:19:06.718Z,0.87
2023-09-24T13:22:08.445Z,0.80
2023-09-24T13:25:12.837Z,0.75
2023-09-24T13:28:16.519Z,0.60
2023-09-24T13:31:18.306Z,0.80
2023-09-24T13:34:20.003Z,0.90
2023-09-24T13:37:21.579Z,1.00
2023-09-24T13:40:37.434Z,0.70
2023-09-24T13:43:39.950Z,1.08
2023-09-24T13:46:41.635Z,0.90
2023-09-24T13:49:43.786Z,0.80
2023-09-24T13:52:45.415Z,0.80
2023-09-24T13:55:47.098Z,0.90
2023-09-24T13:58:48.804Z,0.70
2023-09-24T14:01:50.384Z,0.80
2023-09-24T14:04:53.248Z,1.00
2023-09-24T14:08:14.863Z,1.17
2023-09-24T14:11:45.163Z,1.02
2023-09-24T14:14:46.807Z,0.80
2023-09-24T14:17:58.877Z,1.00
2023-09-24T14:21:13.894Z,1.00
2023-09-24T14:24:15.820Z,1.10
2023-09-24T14:27:17.648Z,1.00
2023-09-24T14:30:19.390Z,1.00
2023-09-24T14:33:21.268Z,1.00
2023-09-24T14:36:23.722Z,1.10
2023-09-24T14:39:25.507Z,1.20
2023-09-24T14:42:27.159Z,1.35
2023-09-24T14:45:29.442Z,1.20
2023-09-24T14:48:31.345Z,1.20
2023-09-24T14:51:35.998Z,1.10
2023-09-24T14:54:37.886Z,1.60
2023-09-24T14:57:41.148Z,1.83
2023-09-24T15:00:46.709Z,1.35
2023-09-24T15:03:48.848Z,1.25
2023-09-24T15:06:50.893Z,1.33
2023-09-24T15:09:52.487Z,1.20
2023-09-24T15:12:55.351Z,1.17
2023-09-24T15:15:57.049Z,1.30
2023-09-24T15:18:58.731Z,1.17
2023-09-24T15:22:00.455Z,1.10
2023-09-24T15:25:02.118Z,1.17
2023-09-24T15:28:04.394Z,1.10
2023-09-24T15:31:07.888Z,1.65
2023-09-24T15:34:09.741Z,1.10
2023-09-24T15:37:11.459Z,1.30
2023-09-24T15:40:16.549Z,1.30
2023-09-24T15:43:18.370Z,1.30
2023-09-24T15:46:20.066Z,1.40
2023-09-24T15:49:21.741Z,1.40
2023-09-24T15:52:23.488Z,1.40
2023-09-24T15:55:25.170Z,1.40
2023-09-24T15:58:27.199Z,1.40
2023-09-24T16:01:29.512Z,1.45
2023-09-24T16:04:31.227Z,1.45
2023-09-24T16:07:33.077Z,1.50
2023-09-24T16:10:34.760Z,2.45
2023-09-24T16:13:36.483Z,11.82
2023-09-24T16:16:38.253Z,5.28
2023-09-24T16:19:40.367Z,3.85
2023-09-24T16:22:42.195Z,3.37
2023-09-24T16:25:43.833Z,3.20
2023-09-24T16:28:46.053Z,3.17
2023-09-24T16:31:47.964Z,2.50
2023-09-24T16:34:51.256Z,2.08
2023-09-24T16:37:52.925Z,1.90
2023-09-24T16:40:59.359Z,2.95
2023-09-24T16:44:01.555Z,4.30
2023-09-24T16:47:06.511Z,2.45
2023-09-24T16:50:09.438Z,3.72
2023-09-24T16:53:11.537Z,2.93
2023-09-24T16:56:13.262Z,5.70
2023-09-24T16:59:14.893Z,8.43
2023-09-24T17:02:16.553Z,3.40
2023-09-24T17:05:18.285Z,1.98
2023-09-24T17:08:19.919Z,4.10
2023-09-24T17:11:21.727Z,1.92
2023-09-24T17:14:23.812Z,3.78
2023-09-24T17:17:25.577Z,2.40
2023-09-24T17:20:28.240Z,1.98
2023-09-24T17:23:30.649Z,1.70
2023-09-24T17:26:34.438Z,1.80
2023-09-24T17:29:36.107Z,1.80
2023-09-24T17:32:38.008Z,2.10
2023-09-24T17:35:39.666Z,2.00
2023-09-24T17:38:48.612Z,1.70
2023-09-24T17:41:50.335Z,1.90
2023-09-24T17:44:52.330Z,1.65
2023-09-24T17:47:54.281Z,1.98
2023-09-24T17:51:07.079Z,2.00
2023-09-24T17:54:08.823Z,1.70
2023-09-24T17:57:10.507Z,1.95
2023-09-24T18:00:13.802Z,2.15
2023-09-24T18:03:21.174Z,2.15
2023-09-24T18:06:23.276Z,2.10
2023-09-24T18:09:25.022Z,2.23
2023-09-24T18:12:26.758Z,2.10
2023-09-24T18:15:30.144Z,8.75
2023-09-24T18:18:35.642Z,4.80
2023-09-24T18:21:37.583Z,3.70
2023-09-24T18:24:41.236Z,2.80
2023-09-24T18:27:43.037Z,2.30
2023-09-24T18:30:45.835Z,2.22
2023-09-24T18:33:47.779Z,2.00
2023-09-24T18:36:50.559Z,1.90
2023-09-24T18:39:52.419Z,1.90
2023-09-24T18:42:54.473Z,2.00
2023-09-24T18:46:01.725Z,1.90
2023-09-24T18:49:04.323Z,1.88
2023-09-24T18:52:07.633Z,1.80
2023-09-24T18:55:09.438Z,1.87
2023-09-24T18:58:11.122Z,1.83
2023-09-24T19:01:13.296Z,1.90
2023-09-24T19:04:15.614Z,1.73
2023-09-24T19:07:17.454Z,1.70
2023-09-24T19:10:19.487Z,1.80
2023-09-24T19:13:21.666Z,1.92
2023-09-24T19:16:24.060Z,2.00
2023-09-24T19:19:25.753Z,2.35
2023-09-24T19:22:27.461Z,2.00
2023-09-24T19:25:30.049Z,2.10
2023-09-24T19:28:31.704Z,2.20
2023-09-24T19:31:34.098Z,2.30
2023-09-24T19:34:35.732Z,2.00
2023-09-24T19:37:37.693Z,2.13
2023-09-24T19:40:39.339Z,2.00
2023-09-24T19:43:41.135Z,2.20
2023-09-24T19:46:42.923Z,2.00
2023-09-24T19:49:45.165Z,2.10
2023-09-24T19:52:46.840Z,1.95
2023-09-24T19:55:49.683Z,1.87
2023-09-24T19:58:51.443Z,2.00
2023-09-24T20:01:53.406Z,1.70
2023-09-24T20:04:55.087Z,1.70
2023-09-24T20:07:56.746Z,1.70
2023-09-24T20:10:58.461Z,1.70
2023-09-24T20:14:05.949Z,1.70
2023-09-24T20:17:09.167Z,1.77
2023-09-24T20:20:12.307Z,1.92
2023-09-24T20:23:14.070Z,1.90
2023-09-24T20:26:15.679Z,1.70
2023-09-24T20:29:17.798Z,1.75
2023-09-24T20:32:19.670Z,1.75
2023-09-24T20:35:24.024Z,1.50
2023-09-24T20:38:25.732Z,1.50
2023-09-24T20:41:28.298Z,1.40
2023-09-24T20:44:33.205Z,1.40
2023-09-24T20:47:34.989Z,1.50
2023-09-24T20:50:37.639Z,1.30
2023-09-24T20:53:39.467Z,1.40
2023-09-24T20:56:41.204Z,1.53
2023-09-24T20:59:53.955Z,1.40
2023-09-24T21:02:55.965Z,1.30
2023-09-24T21:05:58.003Z,1.40
2023-09-24T21:08:59.664Z,1.42
2023-09-24T21:12:01.320Z,1.20
2023-09-24T21:15:05.995Z,1.20
2023-09-24T21:18:07.774Z,1.20
2023-09-24T21:21:09.620Z,1.25
2023-09-24T21:24:11.334Z,1.20
2023-09-24T21:27:14.684Z,1.10
2023-09-24T21:30:16.685Z,1.10
2023-09-24T21:33:18.512Z,1.20
2023-09-24T21:36:20.257Z,1.10
2023-09-24T21:39:22.029Z,1.25
2023-09-24T21:42:23.864Z,1.10
2023-09-24T21:45:25.912Z,1.10
2023-09-24T21:48:27.846Z,1.00
2023-09-24T21:51:30.748Z,1.20
2023-09-24T21:54:32.538Z,1.10
2023-09-24T21:57:34.239Z,1.13
2023-09-24T22:00:38.234Z,1.30
2023-09-24T22:03:41.501Z,1.00
2023-09-24T22:06:43.400Z,1.20
2023-09-24T22:09:45.276Z,1.10
2023-09-24T22:12:47.171Z,1.20
2023-09-24T22:15:48.796Z,1.10
2023-09-24T22:18:51.003Z,1.00
2023-09-24T22:21:52.893Z,1.10
2023-09-24T22:24:54.603Z,1.00
2023-09-24T22:27:56.181Z,1.10
2023-09-24T22:31:03.452Z,1.13
2023-09-24T22:34:06.810Z,1.05
2023-09-24T22:37:08.717Z,1.00
2023-09-24T22:40:11.141Z,1.17
2023-09-24T22:43:25.687Z,1.00
2023-09-24T22:46:28.862Z,1.00
2023-09-24T22:49:31.118Z,1.10
2023-09-24T22:52:32.908Z,1.17
2023-09-24T22:55:34.561Z,1.00
2023-09-24T22:58:36.256Z,1.03
2023-09-24T23:01:38.225Z,1.10
2023-09-24T23:04:41.601Z,1.00
2023-09-24T23:07:44.754Z,1.05
2023-09-24T23:10:46.487Z,1.05
2023-09-24T23:13:48.136Z,1.00
2023-09-24T23:16:51.344Z,1.00
2023-09-24T23:19:53.295Z,1.27
2023-09-24T23:22:55.101Z,1.10
2023-09-24T23:25:56.731Z,1.13
2023-09-24T23:29:00.871Z,1.10
2023-09-24T23:32:02.609Z,1.00
2023-09-24T23:35:05.987Z,1.10
2023-09-24T23:38:07.944Z,1.00
2023-09-24T23:41:09.794Z,1.00
2023-09-24T23:44:14.186Z,0.90
2023-09-24T23:47:15.832Z,1.08
2023-09-24T23:50:19.803Z,1.10
2023-09-24T23:53:21.538Z,1.10
2023-09-24T23:56:23.130Z,0.90
2023-09-24T23:59:24.771Z,1.10
